ULB weather

Uléi Airport
Ambryn Island, Malampa, Vanuatu

Public forecast

Using degrees Celsius for public forecast. Weather courtesy of forecast.io.

METAR (pilot weather report)

Report is more than 6 hours old.

Closest report is Lamap Airport, 28.3 nm (52.4 km) WSW. Retrieved 2019/05/29 19:00 UTC (22 days ago):

NVSL 291900Z NLI

TAF (pilot weather forecast)

Closest forecast is Lamap Airport, 28.3 nm (52.4 km) WSW. Retrieved 2019/06/20 12:01 UTC (3 hours ago):

TAF NVSL 201000Z 2012/2112 13010KT 9999 FEW020 PROB30 INTER 2012/2018 9000 -SHRA BKN018